Time;durP1;ratioP1;P1;durP2;ratioP2;P2;SDS_P1;SDS_P2;PMS_P1;PMS_P2;Temp;Humidity;BMP_temperature;BMP_pressure;BME280_temperature;BME280_humidity;BME280_pressure;Samples;Min_cycle;Max_cycle;Signal;HPM_P1;HPM_P2
2023/02/24 00:02:25;;;;;;;0.10;0.10;;;;;;;-7.97;54.59;99451.47;5065722;28;20075;-67
2023/02/24 00:04:51;;;;;;;0.15;0.15;;;;;;;-8.00;54.88;99459.75;5086817;28;20538;-68
2023/02/24 00:07:19;;;;;;;0.10;0.10;;;;;;;-8.05;54.90;99445.31;5100284;28;20043;-68
2023/02/24 00:09:45;;;;;;;0.20;0.20;;;;;;;-7.97;55.23;99447.97;5102097;28;20055;-68
2023/02/24 00:12:13;;;;;;;0.20;0.20;;;;;;;-8.00;55.15;99454.44;5085975;28;20047;-67
2023/02/24 00:14:41;;;;;;;0.20;0.20;;;;;;;-7.96;55.63;99447.00;5071135;28;20091;-67
2023/02/24 00:17:07;;;;;;;;;;;;;;;-7.96;55.96;99441.69;5088758;28;20058;-67
2023/02/24 00:19:36;;;;;;;0.20;0.20;;;;;;;-8.04;55.87;99437.19;5056214;28;19931;-67
2023/02/24 00:22:04;;;;;;;0.20;0.20;;;;;;;-8.05;55.62;99438.16;5086210;28;20040;-67
2023/02/24 00:24:32;;;;;;;0.10;0.10;;;;;;;-8.10;55.77;99434.34;5082994;28;20060;-67
2023/02/24 00:27:00;;;;;;;0.20;0.20;;;;;;;-8.14;55.69;99425.88;5085037;28;20048;-68
2023/02/24 00:29:26;;;;;;;;;;;;;;;-8.08;55.72;99424.41;5088824;28;20052;-67
2023/02/24 00:31:58;;;;;;;0.30;0.30;;;;;;;-8.08;55.39;99429.72;5068533;28;20023;-67
2023/02/24 00:34:24;;;;;;;0.30;0.30;;;;;;;-8.16;55.20;99414.59;5086787;28;20052;-67
2023/02/24 00:36:52;;;;;;;0.20;0.20;;;;;;;-8.18;55.28;99417.41;5069647;28;20083;-67
2023/02/24 00:39:18;;;;;;;0.30;0.30;;;;;;;-8.20;55.66;99414.09;5070036;28;20052;-68
2023/02/24 00:41:44;;;;;;;1.80;0.20;;;;;;;-8.24;55.72;99410.09;5068884;28;20052;-67
2023/02/24 00:44:13;;;;;;;0.10;0.10;;;;;;;-8.26;55.53;99409.44;5069181;28;20044;-67
2023/02/24 00:46:41;;;;;;;0.20;0.20;;;;;;;-8.25;55.25;99405.78;5050608;28;20058;-67
2023/02/24 00:49:11;;;;;;;0.20;0.20;;;;;;;-8.38;55.30;99379.72;5085771;28;20235;-67
2023/02/24 00:51:39;;;;;;;0.30;0.30;;;;;;;-8.30;54.84;99384.19;5069249;28;20090;-67
2023/02/24 00:54:09;;;;;;;0.20;0.20;;;;;;;-8.19;55.03;99381.25;5086510;28;20052;-67
2023/02/24 00:56:37;;;;;;;0.30;0.30;;;;;;;-8.08;54.70;99381.94;5085442;28;20048;-67
2023/02/24 00:59:03;;;;;;;0.10;0.10;;;;;;;-8.16;54.67;99386.22;5066480;28;20631;-68
2023/02/24 01:01:32;;;;;;;0.52;0.28;;;;;;;-8.24;54.81;99375.63;5086011;28;20044;-67
2023/02/24 01:04:10;;;;;;;0.20;0.20;;;;;;;-8.27;55.30;99371.44;5085919;28;20055;-67
2023/02/24 01:06:38;;;;;;;0.10;0.10;;;;;;;-8.25;55.10;99368.66;5067045;28;20131;-67
2023/02/24 01:09:07;;;;;;;0.10;0.10;;;;;;;-8.28;55.06;99371.59;5068470;28;20048;-67
2023/02/24 01:14:22;;;;;;;0.10;0.10;;;;;;;-8.30;55.16;99358.53;5085050;28;20379;-68
2023/02/24 01:16:51;;;;;;;0.20;0.20;;;;;;;-8.18;55.09;99348.41;5086101;28;20044;-68
2023/02/24 01:19:18;;;;;;;0.20;0.20;;;;;;;-8.17;54.72;99349.25;5087492;28;20468;-68
2023/02/24 01:21:50;;;;;;;0.20;0.20;;;;;;;-8.21;54.57;99342.59;5086595;28;20055;-68
2023/02/24 01:24:18;;;;;;;0.20;0.20;;;;;;;-8.20;54.47;99338.94;5088420;28;20301;-68
2023/02/24 01:26:46;;;;;;;0.37;0.30;;;;;;;-8.20;54.44;99342.44;5087407;28;20426;-68
2023/02/24 01:29:13;;;;;;;0.20;0.20;;;;;;;-8.22;54.33;99339.13;5087597;28;20461;-67
2023/02/24 01:31:41;;;;;;;0.30;0.30;;;;;;;-8.26;54.26;99335.97;5083171;28;20052;-68
2023/02/24 01:34:09;;;;;;;0.10;0.10;;;;;;;-8.27;54.03;99323.69;5067342;28;20541;-67
2023/02/24 01:36:37;;;;;;;0.30;0.30;;;;;;;-8.20;54.10;99315.06;5088405;28;20109;-67
2023/02/24 01:39:04;;;;;;;;;;;;;;;-8.20;53.74;99315.91;5085848;28;20056;-67
2023/02/24 01:41:31;;;;;;;0.10;0.10;;;;;;;-8.21;53.93;99318.72;5084283;28;20027;-67
2023/02/24 01:44:01;;;;;;;0.30;0.30;;;;;;;-8.25;53.58;99310.28;5084376;28;20352;-67
2023/02/24 01:46:28;;;;;;;0.17;0.17;;;;;;;-8.32;53.91;99310.09;5083305;28;20419;-67
2023/02/24 01:49:01;;;;;;;0.20;0.20;;;;;;;-8.31;53.90;99316.22;5065430;28;20472;-68
2023/02/24 01:51:32;;;;;;;0.20;0.20;;;;;;;-8.33;53.96;99302.31;5067154;28;20487;-68
2023/02/24 01:53:58;;;;;;;0.20;0.20;;;;;;;-8.40;53.78;99305.63;5083122;28;20063;-67
2023/02/24 01:56:26;;;;;;;0.20;0.20;;;;;;;-8.34;53.34;99287.38;5083820;28;20050;-67
2023/02/24 01:58:54;;;;;;;0.10;0.10;;;;;;;-8.42;53.55;99285.56;5068768;28;20521;-67
2023/02/24 02:01:21;;;;;;;0.20;0.20;;;;;;;-8.43;53.60;99298.00;5082653;28;20044;-67
2023/02/24 02:03:48;;;;;;;;;;;;;;;-8.51;53.40;99291.84;5065985;28;20044;-67
2023/02/24 02:06:16;;;;;;;0.20;0.20;;;;;;;-8.62;53.64;99285.88;5064785;28;19924;-68
2023/02/24 02:08:43;;;;;;;0.20;0.20;;;;;;;-8.66;53.71;99286.38;5080178;28;20523;-67
2023/02/24 02:11:13;;;;;;;0.20;0.20;;;;;;;-8.70;54.24;99280.56;5067378;28;20048;-67
2023/02/24 02:13:43;;;;;;;0.20;0.20;;;;;;;-8.74;54.20;99273.94;5083111;28;20434;-67
2023/02/24 02:16:45;;;;;;;0.30;0.30;;;;;;;-8.83;54.47;99279.19;5083940;28;20056;-67
2023/02/24 02:19:54;;;;;;;0.20;0.20;;;;;;;-8.87;54.34;99271.75;5054226;28;20087;-67
2023/02/24 02:22:43;;;;;;;0.23;0.23;;;;;;;-8.88;54.82;99273.56;5066701;28;20047;-67
2023/02/24 02:25:16;;;;;;;0.20;0.20;;;;;;;-8.85;54.49;99269.75;5091022;28;20490;-67
2023/02/24 02:28:18;;;;;;;0.10;0.10;;;;;;;-8.91;54.63;99257.16;5085678;28;20062;-68
2023/02/24 02:31:05;;;;;;;0.17;0.17;;;;;;;-8.91;55.00;99243.91;5086219;28;20099;-67
2023/02/24 02:34:14;;;;;;;0.20;0.20;;;;;;;-8.91;55.31;99246.53;5084368;28;20047;-67
2023/02/24 02:36:54;;;;;;;0.10;0.10;;;;;;;-8.96;55.62;99231.16;5083594;28;20071;-67
2023/02/24 02:39:33;;;;;;;0.10;0.10;;;;;;;-8.90;55.55;99232.31;5066639;28;20526;-67
2023/02/24 02:42:13;;;;;;;0.20;0.20;;;;;;;-8.83;55.53;99220.88;5067535;28;20044;-67
2023/02/24 02:44:54;;;;;;;0.30;0.30;;;;;;;-8.75;55.71;99214.75;5051131;28;20573;-68
2023/02/24 02:47:26;;;;;;;0.10;0.10;;;;;;;-8.72;55.60;99200.38;5067908;28;20507;-67
2023/02/24 02:50:00;;;;;;;0.23;0.23;;;;;;;-8.69;55.69;99195.56;5068002;28;20051;-67
2023/02/24 02:52:34;;;;;;;0.10;0.10;;;;;;;-8.53;55.44;99203.69;5068288;28;20048;-67
2023/02/24 02:55:07;;;;;;;0.13;0.13;;;;;;;-8.48;55.40;99204.00;5049421;28;20044;-67
2023/02/24 02:57:36;;;;;;;0.20;0.20;;;;;;;-8.49;55.47;99200.50;5065058;28;20064;-67
2023/02/24 03:00:12;;;;;;;0.20;0.20;;;;;;;-8.52;55.64;99190.28;5081452;28;20083;-67
2023/02/24 03:02:45;;;;;;;0.10;0.10;;;;;;;-8.53;55.54;99183.31;5065981;28;20102;-67
2023/02/24 03:05:19;;;;;;;0.10;0.10;;;;;;;-8.57;55.33;99177.50;5066528;28;20139;-67
2023/02/24 03:07:50;;;;;;;0.20;0.20;;;;;;;-8.58;55.46;99167.09;5067134;28;20056;-68
2023/02/24 03:10:21;;;;;;;0.17;0.17;;;;;;;-8.58;55.85;99164.44;5069972;28;20045;-67
2023/02/24 03:12:51;;;;;;;0.20;0.20;;;;;;;-8.57;56.07;99153.66;5070798;28;20048;-67
2023/02/24 03:15:21;;;;;;;0.10;0.10;;;;;;;-8.60;55.89;99151.34;5068407;28;20072;-67
2023/02/24 03:17:55;;;;;;;0.10;0.10;;;;;;;-8.64;56.25;99133.25;5051113;28;20047;-67
2023/02/24 03:20:31;;;;;;;0.20;0.20;;;;;;;-8.66;56.00;99135.25;5055580;28;20553;-68
2023/02/24 03:23:01;;;;;;;0.20;0.20;;;;;;;-8.70;56.57;99135.59;5087698;28;20056;-68
2023/02/24 03:25:37;;;;;;;0.20;0.20;;;;;;;-8.75;56.76;99131.78;5086106;28;20048;-67
2023/02/24 03:28:10;;;;;;;0.20;0.20;;;;;;;-8.86;56.58;99125.81;5073046;28;20044;-68
2023/02/24 03:30:41;;;;;;;0.30;0.30;;;;;;;-8.90;57.26;99118.34;5094224;28;20059;-68
2023/02/24 03:33:15;;;;;;;0.30;0.30;;;;;;;-8.91;57.10;99106.09;5071566;28;20052;-68
2023/02/24 03:35:44;;;;;;;0.20;0.20;;;;;;;-8.90;57.45;99119.19;5084106;28;20185;-68
2023/02/24 03:38:13;;;;;;;0.20;0.20;;;;;;;-8.84;57.27;99104.44;5087591;28;20064;-68
2023/02/24 03:40:42;;;;;;;0.52;0.30;;;;;;;-8.86;57.50;99103.78;5087214;28;20054;-68
2023/02/24 03:43:15;;;;;;;0.53;0.30;;;;;;;-8.87;57.43;99091.53;5087634;28;20062;-68
2023/02/24 03:45:42;;;;;;;0.30;0.30;;;;;;;-8.89;57.70;99082.94;5089089;28;20050;-68
2023/02/24 03:48:13;;;;;;;0.30;0.30;;;;;;;-8.83;57.42;99071.66;5105353;28;20079;-68
2023/02/24 03:50:41;;;;;;;0.20;0.20;;;;;;;-8.88;57.68;99066.84;5090477;28;20557;-68
2023/02/24 03:53:36;;;;;;;0.20;0.20;;;;;;;-8.89;57.43;99056.44;5071832;28;20058;-69
2023/02/24 03:56:21;;;;;;;0.27;0.27;;;;;;;-8.88;57.63;99053.59;5087614;28;20075;-68
2023/02/24 03:59:01;;;;;;;0.13;0.13;;;;;;;-8.80;57.69;99060.72;5086691;28;20044;-68
2023/02/24 04:01:36;;;;;;;0.20;0.20;;;;;;;-8.83;57.73;99048.59;5109006;28;20047;-68
2023/02/24 04:04:10;;;;;;;0.20;0.20;;;;;;;-8.84;57.59;99046.16;5088693;28;20462;-68
2023/02/24 04:06:54;;;;;;;0.20;0.20;;;;;;;-8.80;57.41;99052.75;5067406;28;20046;-68
2023/02/24 04:09:28;;;;;;;0.20;0.20;;;;;;;-8.76;57.73;99042.66;5051928;28;20052;-69
2023/02/24 04:12:08;;;;;;;0.20;0.20;;;;;;;-8.73;57.36;99051.09;5068266;28;20119;-68
2023/02/24 04:14:44;;;;;;;0.10;0.10;;;;;;;-8.69;57.34;99047.13;5070823;28;20051;-67
2023/02/24 04:17:18;;;;;;;1.33;0.30;;;;;;;-8.65;57.68;99033.53;5069918;28;20044;-67
2023/02/24 04:19:48;;;;;;;0.20;0.20;;;;;;;-8.66;57.44;99029.22;5075872;28;20058;-68
2023/02/24 04:22:23;;;;;;;0.20;0.20;;;;;;;-8.63;57.16;99019.09;5086615;28;20048;-67
2023/02/24 04:24:55;;;;;;;0.10;0.10;;;;;;;-8.64;57.33;99016.63;5085584;28;20063;-68
2023/02/24 04:27:22;;;;;;;0.23;0.23;;;;;;;-8.64;57.74;99013.97;5072217;28;20054;-67
2023/02/24 04:29:53;;;;;;;0.20;0.20;;;;;;;-8.67;57.19;98991.25;5086855;28;20058;-67
2023/02/24 04:32:24;;;;;;;0.10;0.10;;;;;;;-8.60;57.57;99002.84;5090759;28;20040;-67
2023/02/24 04:34:51;;;;;;;0.20;0.20;;;;;;;-8.49;57.11;98996.31;5087830;28;20059;-67
2023/02/24 04:37:21;;;;;;;0.30;0.30;;;;;;;-8.40;57.02;99003.25;5083180;28;20046;-69
2023/02/24 04:39:49;;;;;;;0.10;0.10;;;;;;;-8.42;57.10;99004.41;5087027;28;20064;-67
2023/02/24 04:42:24;;;;;;;0.20;0.20;;;;;;;-8.48;57.21;99000.63;5085937;28;20074;-68
2023/02/24 04:44:52;;;;;;;0.20;0.20;;;;;;;-8.48;56.97;99003.28;5106145;28;20059;-67
2023/02/24 04:47:18;;;;;;;0.20;0.20;;;;;;;-8.49;57.23;98998.97;5102101;28;20052;-67
2023/02/24 04:49:44;;;;;;;0.13;0.13;;;;;;;-8.50;57.22;98997.34;5087935;28;20511;-68
2023/02/24 04:52:10;;;;;;;0.10;0.10;;;;;;;-8.51;57.29;99000.16;5066564;28;20047;-67
2023/02/24 04:54:37;;;;;;;0.20;0.20;;;;;;;-8.52;57.67;98988.75;5066634;28;20511;-67
2023/02/24 04:57:05;;;;;;;0.20;0.20;;;;;;;-8.49;57.53;98988.38;5085045;28;20056;-67
2023/02/24 04:59:33;;;;;;;0.20;0.20;;;;;;;-8.46;57.74;98998.63;5067886;28;20507;-67
2023/02/24 05:02:00;;;;;;;0.20;0.20;;;;;;;-8.51;57.87;98979.78;5066380;28;20052;-68
2023/02/24 05:04:28;;;;;;;0.10;0.10;;;;;;;-8.43;57.95;98977.09;5087459;28;20044;-67
2023/02/24 05:06:56;;;;;;;0.20;0.20;;;;;;;-8.38;57.45;98981.03;5084038;28;20048;-67
2023/02/24 05:09:22;;;;;;;0.20;0.20;;;;;;;-8.42;57.94;98976.09;5096495;28;20048;-67
2023/02/24 05:11:50;;;;;;;0.20;0.20;;;;;;;-8.40;57.64;98979.41;5065501;28;20040;-67
2023/02/24 05:14:19;;;;;;;0.15;0.15;;;;;;;-8.40;57.69;98957.34;5085560;28;20051;-67
2023/02/24 05:16:47;;;;;;;0.30;0.30;;;;;;;-8.23;57.62;98950.13;5066326;28;20043;-67
2023/02/24 05:22:05;;;;;;;0.20;0.20;;;;;;;-8.09;57.09;98943.25;5083375;28;20040;-68
2023/02/24 05:24:32;;;;;;;0.20;0.20;;;;;;;-8.07;56.91;98930.63;5066563;28;20044;-68
2023/02/24 05:26:58;;;;;;;0.20;0.20;;;;;;;-8.09;56.74;98945.09;5071621;28;21600;-68
2023/02/24 05:29:25;;;;;;;0.20;0.20;;;;;;;-8.06;56.94;98936.78;5086115;28;20048;-69
2023/02/24 05:31:53;;;;;;;0.22;0.22;;;;;;;-8.05;56.96;98928.63;5086459;28;20172;-68
2023/02/24 05:34:20;;;;;;;0.20;0.20;;;;;;;-7.98;57.07;98934.06;5069614;28;20052;-68
2023/02/24 05:36:47;;;;;;;0.25;0.25;;;;;;;-7.97;56.67;98927.75;5057816;28;20044;-68
2023/02/24 05:39:18;;;;;;;0.20;0.20;;;;;;;-7.95;56.78;98903.72;5079421;28;20593;-68
2023/02/24 05:41:47;;;;;;;0.30;0.30;;;;;;;-8.00;57.30;98897.09;5088425;28;20047;-68
2023/02/24 05:44:16;;;;;;;0.73;0.30;;;;;;;-7.89;56.80;98916.25;5070328;28;20079;-68
2023/02/24 05:46:44;;;;;;;0.30;0.30;;;;;;;-7.87;56.78;98891.19;5086693;28;20044;-68
2023/02/24 05:49:13;;;;;;;;;;;;;;;-7.92;56.92;98912.16;5077620;28;20437;-68
2023/02/24 05:51:42;;;;;;;0.30;0.30;;;;;;;-7.98;56.96;98903.06;5051153;28;20026;-68
2023/02/24 05:54:11;;;;;;;0.20;0.20;;;;;;;-8.00;57.41;98906.88;5049874;28;20400;-68
2023/02/24 05:56:39;;;;;;;0.50;0.20;;;;;;;-7.98;57.54;98889.78;5085934;28;20067;-68
2023/02/24 05:59:10;;;;;;;0.20;0.20;;;;;;;-7.79;56.97;98889.50;5088668;28;20072;-69
2023/02/24 06:01:40;;;;;;;0.20;0.20;;;;;;;-7.75;57.09;98886.28;5090109;28;20056;-68
2023/02/24 06:04:07;;;;;;;0.43;0.30;;;;;;;-7.71;56.59;98884.13;5071177;28;20056;-67
2023/02/24 06:06:36;;;;;;;0.20;0.20;;;;;;;-7.67;56.88;98881.94;5087660;28;20500;-67
2023/02/24 06:09:08;;;;;;;0.20;0.20;;;;;;;-7.63;56.62;98876.09;5071397;28;20048;-68
2023/02/24 06:11:35;;;;;;;0.20;0.20;;;;;;;-7.60;56.58;98880.19;5089294;28;20067;-68
2023/02/24 06:14:01;;;;;;;0.10;0.10;;;;;;;-7.62;56.82;98863.63;5067980;28;20075;-67
2023/02/24 06:16:28;;;;;;;0.10;0.10;;;;;;;-7.65;56.75;98862.16;5067903;28;20066;-67
2023/02/24 06:18:57;;;;;;;0.20;0.20;;;;;;;-7.69;57.39;98861.69;5087579;28;20064;-67
2023/02/24 06:21:25;;;;;;;0.20;0.20;;;;;;;-7.68;57.48;98862.50;5094930;28;20562;-68
2023/02/24 06:23:52;;;;;;;0.10;0.10;;;;;;;-7.67;57.73;98861.50;5107826;28;20142;-68
2023/02/24 06:26:18;;;;;;;0.10;0.10;;;;;;;-7.68;58.13;98846.56;5086705;28;20442;-68
2023/02/24 06:28:46;;;;;;;0.20;0.20;;;;;;;-7.61;58.44;98865.28;5089180;28;20048;-68
2023/02/24 06:31:13;;;;;;;0.20;0.20;;;;;;;-7.67;59.45;98858.03;5092571;28;20244;-68
2023/02/24 06:33:40;;;;;;;0.20;0.20;;;;;;;-7.67;59.94;98869.47;5108313;28;20071;-68
2023/02/24 06:36:07;;;;;;;0.25;0.25;;;;;;;-7.68;61.23;98849.22;5110590;28;20048;-68
2023/02/24 06:38:35;;;;;;;0.30;0.30;;;;;;;-7.75;61.96;98843.00;5090395;28;20142;-68
2023/02/24 06:41:09;;;;;;;0.30;0.30;;;;;;;-7.67;62.88;98853.53;5093887;28;20606;-68
2023/02/24 06:43:37;;;;;;;0.20;0.20;;;;;;;-7.60;63.72;98833.25;5110302;28;20043;-67
2023/02/24 06:46:05;;;;;;;0.20;0.20;;;;;;;-7.66;63.73;98828.63;5111097;28;20044;-68
2023/02/24 06:48:32;;;;;;;;;;;;;;;-7.66;64.21;98831.28;5093972;28;20065;-67
2023/02/24 06:51:02;;;;;;;0.28;0.28;;;;;;;-7.63;63.87;98825.66;5085912;28;19924;-67
2023/02/24 06:53:28;;;;;;;0.30;0.30;;;;;;;-7.64;64.06;98821.34;5069464;28;20059;-68
2023/02/24 06:55:54;;;;;;;0.30;0.30;;;;;;;-7.60;64.57;98825.28;5066797;28;20192;-67
2023/02/24 06:58:23;;;;;;;0.20;0.20;;;;;;;-7.66;65.47;98817.19;5090107;28;20127;-67
2023/02/24 07:00:58;;;;;;;0.20;0.20;;;;;;;-7.70;66.05;98822.03;5053766;28;20051;-67
2023/02/24 07:03:38;;;;;;;0.20;0.20;;;;;;;-7.75;66.60;98819.13;5084395;28;20507;-69
2023/02/24 07:06:39;;;;;;;0.20;0.20;;;;;;;-7.76;66.78;98805.00;5105965;28;20342;-69
2023/02/24 07:08:58;;;;;;;0.30;0.30;;;;;;;-7.65;67.24;98794.94;5084816;28;20052;-68
2023/02/24 07:11:24;;;;;;;0.20;0.20;;;;;;;-7.63;68.39;98795.59;5067846;28;20090;-68
2023/02/24 07:13:53;;;;;;;0.23;0.23;;;;;;;-7.60;69.62;98792.56;5085191;28;20090;-68
2023/02/24 07:16:23;;;;;;;0.30;0.30;;;;;;;-7.66;69.71;98777.38;5090565;28;20067;-69
2023/02/24 07:18:55;;;;;;;0.20;0.20;;;;;;;-7.67;70.05;98776.53;5076404;28;20511;-70
2023/02/24 07:21:23;;;;;;;0.30;0.30;;;;;;;-7.53;70.18;98779.38;5072130;28;20142;-68
2023/02/24 07:23:55;;;;;;;0.20;0.20;;;;;;;-7.57;70.59;98789.53;5085618;28;20048;-69
2023/02/24 07:26:24;;;;;;;0.20;0.20;;;;;;;-7.60;70.96;98776.63;5069688;28;20139;-68
2023/02/24 07:28:56;;;;;;;0.20;0.20;;;;;;;-7.51;71.48;98769.41;5085119;28;20040;-68
2023/02/24 07:31:24;;;;;;;2.00;0.27;;;;;;;-7.38;71.14;98761.63;5084884;28;20281;-68
2023/02/24 07:33:54;;;;;;;0.25;0.25;;;;;;;-7.26;70.96;98749.53;5088580;28;20077;-69
2023/02/24 07:36:23;;;;;;;0.20;0.20;;;;;;;-7.19;70.65;98743.47;5077333;28;20067;-69
2023/02/24 07:38:52;;;;;;;0.20;0.20;;;;;;;-7.26;70.96;98749.53;5100247;28;20039;-68
2023/02/24 07:41:21;;;;;;;0.20;0.20;;;;;;;-7.38;70.92;98736.91;5089126;28;20052;-68
2023/02/24 07:43:49;;;;;;;0.20;0.20;;;;;;;-7.24;71.17;98745.88;5088861;28;20051;-69
2023/02/24 07:46:19;;;;;;;0.10;0.10;;;;;;;-7.16;70.84;98751.91;5106718;28;20559;-68
2023/02/24 07:48:47;;;;;;;0.20;0.20;;;;;;;-7.10;70.88;98742.38;5089873;28;20047;-69
2023/02/24 07:51:15;;;;;;;0.47;0.20;;;;;;;-7.08;70.46;98743.00;5088496;28;20056;-69
2023/02/24 07:53:42;;;;;;;0.20;0.20;;;;;;;-7.14;70.88;98735.78;5105828;28;20058;-68
2023/02/24 07:56:12;;;;;;;0.10;0.10;;;;;;;-7.08;70.92;98739.53;5104515;28;20139;-68
2023/02/24 07:58:40;;;;;;;0.40;0.30;;;;;;;-7.06;70.79;98726.88;5104452;28;20047;-69
2023/02/24 08:01:07;;;;;;;0.20;0.20;;;;;;;-6.91;70.93;98727.66;5104402;28;20187;-68
2023/02/24 08:03:40;;;;;;;0.20;0.20;;;;;;;-6.80;70.38;98738.81;5107199;28;20051;-68
2023/02/24 08:06:14;;;;;;;0.20;0.20;;;;;;;-6.88;70.95;98723.78;5107812;28;20052;-69
2023/02/24 08:08:56;;;;;;;0.20;0.20;;;;;;;-6.82;71.03;98739.00;5105257;28;20067;-69
2023/02/24 08:11:24;;;;;;;0.40;0.30;;;;;;;-6.92;70.63;98710.06;5102423;28;20052;-68
2023/02/24 08:13:50;;;;;;;;;;;;;;;-6.77;70.67;98728.63;5105462;28;20078;-68
2023/02/24 08:16:16;;;;;;;0.20;0.20;;;;;;;-6.77;70.77;98706.53;5087058;28;20004;-69
2023/02/24 08:18:47;;;;;;;0.20;0.20;;;;;;;-6.68;70.77;98710.72;5106464;28;20131;-70
2023/02/24 08:21:14;;;;;;;0.40;0.40;;;;;;;-6.66;70.36;98718.50;5097616;28;20163;-69
2023/02/24 08:23:43;;;;;;;0.20;0.20;;;;;;;-6.66;70.89;98713.19;5086986;28;20048;-70
2023/02/24 08:26:11;;;;;;;0.30;0.30;;;;;;;-6.69;70.96;98714.38;5067649;28;20094;-69
2023/02/24 08:28:38;;;;;;;0.30;0.30;;;;;;;-6.58;71.27;98708.56;5047576;28;20056;-69
2023/02/24 08:31:04;;;;;;;0.33;0.33;;;;;;;-6.46;70.84;98695.56;5069385;28;20519;-68
2023/02/24 08:33:31;;;;;;;0.20;0.20;;;;;;;-6.43;70.73;98699.69;5052566;28;20508;-68
2023/02/24 08:36:01;;;;;;;0.20;0.20;;;;;;;-6.36;70.57;98695.25;5070921;28;20253;-69
2023/02/24 08:38:38;;;;;;;0.27;0.27;;;;;;;-6.34;70.34;98695.88;5086794;28;20134;-70
2023/02/24 08:41:05;;;;;;;0.10;0.10;;;;;;;-6.34;70.15;98705.72;5086428;28;20048;-69
2023/02/24 08:43:38;;;;;;;0.20;0.20;;;;;;;-6.47;70.60;98687.81;5082997;28;20580;-70
2023/02/24 08:46:16;;;;;;;0.20;0.20;;;;;;;-6.43;70.91;98689.06;5071061;28;20108;-71
2023/02/24 08:48:45;;;;;;;0.20;0.20;;;;;;;-6.28;71.07;98691.63;5099813;28;20051;-69
2023/02/24 08:51:16;;;;;;;0.30;0.30;;;;;;;-6.19;70.66;98681.66;5074598;28;20054;-69
2023/02/24 08:53:45;;;;;;;0.20;0.20;;;;;;;-6.14;70.47;98685.41;5104650;28;20384;-69
2023/02/24 08:56:13;;;;;;;0.20;0.20;;;;;;;-6.15;70.72;98681.09;5102422;28;20048;-68
2023/02/24 08:58:55;;;;;;;0.30;0.30;;;;;;;-6.09;70.71;98684.81;5088422;28;20138;-69
2023/02/24 09:01:24;;;;;;;0.20;0.20;;;;;;;-6.05;70.91;98674.63;5087476;28;20048;-69
2023/02/24 09:03:54;;;;;;;0.10;0.10;;;;;;;-6.03;70.65;98676.03;5059422;28;20054;-68
2023/02/24 09:06:25;;;;;;;0.20;0.20;;;;;;;-5.92;70.89;98681.81;5076057;28;20044;-69
2023/02/24 09:11:42;;;;;;;0.20;0.20;;;;;;;-5.60;70.25;98672.41;5103155;28;20085;-69
2023/02/24 09:14:15;;;;;;;0.30;0.30;;;;;;;-5.45;69.77;98668.78;5104978;28;20151;-69
2023/02/24 09:17:19;;;;;;;0.20;0.20;;;;;;;-5.48;69.57;98658.50;5102167;28;20067;-69
2023/02/24 09:25:39;;;;;;;0.20;0.20;;;;;;;-5.51;69.97;98650.91;5067573;28;20051;-69
2023/02/24 09:27:54;;;;;;;0.20;0.20;;;;;;;-5.43;70.45;98653.41;5085111;28;20146;-69
2023/02/24 09:30:36;;;;;;;0.10;0.10;;;;;;;-5.35;70.24;98650.56;5086409;28;20048;-69
2023/02/24 09:33:07;;;;;;;0.37;0.20;;;;;;;-5.33;69.86;98643.19;5085934;28;20147;-69
2023/02/24 09:35:35;;;;;;;0.20;0.20;;;;;;;-5.39;69.84;98636.00;5074259;28;20537;-70
2023/02/24 09:38:06;;;;;;;0.20;0.20;;;;;;;-5.26;70.39;98643.22;5051890;28;20059;-70
2023/02/24 09:41:05;;;;;;;0.20;0.20;;;;;;;-5.08;70.22;98637.31;5063424;28;20138;-69
2023/02/24 09:43:23;;;;;;;0.20;0.20;;;;;;;-5.07;69.63;98633.63;5080234;28;20048;-69
2023/02/24 09:45:58;;;;;;;0.20;0.20;;;;;;;-5.16;69.61;98621.50;5083555;28;20066;-69
2023/02/24 09:48:32;;;;;;;;;;;;;;;-5.13;69.73;98618.47;5082158;28;20048;-69
2023/02/24 09:51:03;;;;;;;0.20;0.20;;;;;;;-5.07;69.49;98614.13;5085057;28;19924;-69
2023/02/24 09:53:47;;;;;;;0.30;0.30;;;;;;;-5.00;69.64;98620.31;5081861;28;20573;-69
2023/02/24 09:56:21;;;;;;;0.20;0.20;;;;;;;-5.06;69.83;98605.94;5053529;28;20888;-70
2023/02/24 09:58:54;;;;;;;0.20;0.20;;;;;;;-4.90;69.90;98612.75;5084554;28;20048;-69
2023/02/24 10:01:31;;;;;;;0.20;0.20;;;;;;;-5.03;70.19;98602.88;5081527;28;20040;-69
2023/02/24 10:04:04;;;;;;;;;;;;;;;-5.04;70.13;98603.91;5085047;28;20044;-69
2023/02/24 10:06:38;;;;;;;0.20;0.20;;;;;;;-5.02;70.41;98599.19;5092224;28;20440;-69
2023/02/24 10:09:12;;;;;;;0.30;0.30;;;;;;;-4.91;70.50;98580.94;5085358;28;20259;-69
2023/02/24 10:11:52;;;;;;;0.20;0.20;;;;;;;-4.74;70.26;98589.38;5068033;28;20048;-70
2023/02/24 10:14:27;;;;;;;0.10;0.10;;;;;;;-4.60;69.92;98582.19;5082617;28;20590;-69
2023/02/24 10:17:21;;;;;;;0.30;0.30;;;;;;;-4.64;70.05;98583.63;5070158;28;20158;-70
2023/02/24 10:19:44;;;;;;;0.17;0.17;;;;;;;-4.63;70.32;98574.59;5082637;28;20044;-70
2023/02/24 10:22:26;;;;;;;0.20;0.20;;;;;;;-4.71;70.31;98555.09;5079827;28;20040;-70
2023/02/24 10:25:09;;;;;;;0.20;0.20;;;;;;;-4.49;70.44;98562.06;5095063;28;20051;-69
2023/02/24 10:27:51;;;;;;;0.20;0.20;;;;;;;-4.34;70.22;98551.19;5085832;28;20092;-69
2023/02/24 10:30:46;;;;;;;0.20;0.20;;;;;;;-4.28;69.89;98553.00;5086695;28;20292;-69
2023/02/24 10:33:19;;;;;;;0.23;0.23;;;;;;;-4.43;69.98;98523.88;5053274;28;20058;-69
2023/02/24 10:35:46;;;;;;;0.20;0.20;;;;;;;-4.21;69.90;98548.47;5089731;28;20173;-69
2023/02/24 10:38:12;;;;;;;0.10;0.10;;;;;;;-4.15;69.55;98541.47;5104112;28;20047;-69
2023/02/24 10:40:55;;;;;;;0.10;0.10;;;;;;;-4.07;69.86;98538.56;5105889;28;20459;-69
2023/02/24 10:43:30;;;;;;;0.20;0.20;;;;;;;-4.01;69.12;98535.06;5102811;28;20048;-69
2023/02/24 10:46:15;;;;;;;0.20;0.20;;;;;;;-4.21;69.54;98548.47;5087802;28;20059;-69
2023/02/24 10:48:50;;;;;;;0.20;0.20;;;;;;;-4.13;69.50;98531.41;5109587;28;20386;-69
2023/02/24 10:51:20;;;;;;;0.40;0.40;;;;;;;-3.99;69.57;98534.84;5109762;28;20055;-71
2023/02/24 10:56:43;;;;;;;0.20;0.20;;;;;;;-3.88;68.91;98531.53;5089669;28;20060;-69
2023/02/24 11:01:58;;;;;;;0.10;0.10;;;;;;;-3.82;68.43;98515.69;5088780;28;20102;-69
2023/02/24 11:04:42;;;;;;;0.20;0.20;;;;;;;-3.91;68.45;98517.78;5088008;28;20039;-69
2023/02/24 11:07:23;;;;;;;0.20;0.20;;;;;;;-3.94;69.25;98516.34;5085362;28;20135;-69
2023/02/24 11:10:09;;;;;;;0.20;0.20;;;;;;;-3.87;68.27;98529.66;5095800;28;20055;-69
2023/02/24 11:18:34;;;;;;;0.10;0.10;;;;;;;-3.84;68.77;98497.19;5011937;28;20077;-69
2023/02/24 11:21:03;;;;;;;0.10;0.10;;;;;;;-3.80;68.78;98500.25;5051909;28;20056;-69
2023/02/24 11:23:33;;;;;;;0.20;0.20;;;;;;;-3.64;68.23;98501.63;5088505;28;20048;-69
2023/02/24 11:26:03;;;;;;;0.20;0.20;;;;;;;-3.60;68.39;98516.19;5089040;28;20040;-69
2023/02/24 11:28:48;;;;;;;0.17;0.17;;;;;;;-3.55;67.83;98503.00;5088123;28;20048;-69
2023/02/24 11:31:27;;;;;;;0.10;0.10;;;;;;;-3.46;67.46;98495.53;5094039;28;20064;-69
2023/02/24 11:34:03;;;;;;;0.17;0.17;;;;;;;-3.40;67.19;98505.38;5060799;28;20048;-69
2023/02/24 11:36:36;;;;;;;0.30;0.30;;;;;;;-3.36;66.89;98490.53;5070250;28;20040;-69
2023/02/24 11:39:16;;;;;;;0.20;0.20;;;;;;;-3.43;66.44;98477.22;5073987;28;20139;-69
2023/02/24 11:41:46;;;;;;;0.20;0.20;;;;;;;-3.62;66.55;98478.19;5066854;28;20062;-69
2023/02/24 11:44:21;;;;;;;0.20;0.20;;;;;;;-3.58;66.73;98474.03;5054800;28;20040;-71
2023/02/24 11:46:53;;;;;;;0.20;0.20;;;;;;;-3.51;66.69;98474.00;5067185;28;20184;-70
2023/02/24 11:49:28;;;;;;;0.20;0.20;;;;;;;-3.39;66.76;98472.28;5082096;28;20058;-70
2023/02/24 11:51:56;;;;;;;0.20;0.20;;;;;;;-3.35;66.68;98472.66;5067180;28;20101;-70
2023/02/24 11:54:25;;;;;;;0.10;0.10;;;;;;;-3.39;66.34;98472.28;5087521;28;20572;-70
2023/02/24 11:56:54;;;;;;;0.20;0.20;;;;;;;-3.51;66.48;98460.63;5069230;28;20135;-70
2023/02/24 11:59:30;;;;;;;0.10;0.10;;;;;;;-3.59;67.10;98464.38;5084565;28;20048;-70
2023/02/24 12:02:02;;;;;;;0.10;0.10;;;;;;;-3.55;67.13;98462.91;5099566;28;20090;-70
2023/02/24 12:04:33;;;;;;;0.10;0.10;;;;;;;-3.50;67.14;98464.94;5068512;28;20135;-70
2023/02/24 12:07:06;;;;;;;0.17;0.17;;;;;;;-3.60;66.74;98457.41;5088549;28;20048;-70
2023/02/24 12:09:37;;;;;;;0.20;0.20;;;;;;;-3.77;67.37;98460.56;5084153;28;20063;-70
2023/02/24 12:12:07;;;;;;;0.10;0.10;;;;;;;-3.71;67.43;98457.03;5094629;28;20261;-69
2023/02/24 12:14:40;;;;;;;0.10;0.10;;;;;;;-3.77;67.21;98449.91;5095652;28;20048;-70
2023/02/24 12:17:18;;;;;;;0.10;0.10;;;;;;;-3.75;67.25;98460.34;5056160;28;20048;-69
2023/02/24 12:19:56;;;;;;;0.10;0.10;;;;;;;-3.74;67.63;98459.34;5085940;28;20058;-69
2023/02/24 12:22:27;;;;;;;0.10;0.10;;;;;;;-3.77;67.82;98470.44;5099048;28;20044;-69
2023/02/24 12:24:53;;;;;;;0.10;0.10;;;;;;;-3.91;67.48;98440.31;5085106;28;20068;-69